DAL41 KLAX-YSSY
Flight info
| Callsign | DAL41 |
|---|---|
| Flight time | N/A |
| Altitude | 30000 |
| Route | SUMMR2 DINTY DCT 3459N12710W 3516N13255W 3351N13947W 3105N14437W/N0497F320 2955N14608W 2600N15104W 2354N15334W 2222N15518W 1938N15753W 1914N15813W 1745N15930W 1615N16046W 1233N16355W/N0501F340 0837N16645W 0519N16913W 0357N17019W 0022S17340W 0316S17555W 0500S17725W 0707S17915W 1121S17625E/N0496F360 1522S17228E 1847S16920E 2230S16624E 2510S16422E 2641S16300E 2857S16052E/N0486F380 3111S15756E DCT ABARB DCT RIKNI N774 MARLN |
| Aircraft | B77W/H-SDE1E2E3FGHIJ2J3J4J5M1RWXY/LB1D1 |
Departure
| Time | 2026-04-24 19:13 |
|---|---|
| Airport | Los Angeles International Airport (KLAX) |
Arrival
| Time | N/A |
|---|---|
| Airport | Sydney Kingsford Smith International Airport (YSSY) |
| Time | Latitude | Longitude | Altitude | Speed | Heading |
|---|---|---|---|---|---|
| 2026-04-24 18:54 | 33.94477 | -118.40983 | 97 ft | 0 kts | 261° |
| 2026-04-24 19:01 | 33.94480 | -118.40959 | 106 ft | 4 kts | 261° |
| 2026-04-24 19:01 | 33.94484 | -118.40927 | 96 ft | 4 kts | 261° |
| 2026-04-24 19:01 | 33.94488 | -118.40895 | 98 ft | 4 kts | 261° |
| 2026-04-24 19:01 | 33.94490 | -118.40882 | 98 ft | 1 kts | 261° |
| 2026-04-24 19:05 | 33.94490 | -118.40883 | 98 ft | 1 kts | 261° |
| 2026-04-24 19:06 | 33.94493 | -118.40898 | 97 ft | 2 kts | 288° |
| 2026-04-24 19:06 | 33.94497 | -118.40907 | 97 ft | 0 kts | 303° |
| 2026-04-24 19:07 | 33.94498 | -118.40907 | 97 ft | 1 kts | 305° |
| 2026-04-24 19:07 | 33.94514 | -118.40916 | 98 ft | 4 kts | 347° |
| 2026-04-24 19:07 | 33.94539 | -118.40916 | 98 ft | 4 kts | 3° |
| 2026-04-24 19:07 | 33.94565 | -118.40911 | 99 ft | 4 kts | 11° |
| 2026-04-24 19:08 | 33.94599 | -118.40901 | 100 ft | 6 kts | 12° |
| 2026-04-24 19:08 | 33.94640 | -118.40900 | 98 ft | 6 kts | 354° |
| 2026-04-24 19:08 | 33.94681 | -118.40907 | 99 ft | 6 kts | 352° |
| 2026-04-24 19:08 | 33.94738 | -118.40901 | 99 ft | 10 kts | 16° |
| 2026-04-24 19:09 | 33.94802 | -118.40876 | 101 ft | 10 kts | 20° |
| 2026-04-24 19:09 | 33.94839 | -118.40812 | 99 ft | 10 kts | 76° |
| 2026-04-24 19:09 | 33.94849 | -118.40731 | 101 ft | 10 kts | 82° |
| 2026-04-24 19:09 | 33.94859 | -118.40636 | 99 ft | 15 kts | 84° |
| 2026-04-24 19:10 | 33.94873 | -118.40499 | 100 ft | 17 kts | 82° |
| 2026-04-24 19:10 | 33.94888 | -118.40360 | 100 ft | 17 kts | 82° |
| 2026-04-24 19:10 | 33.94903 | -118.40222 | 101 ft | 16 kts | 83° |
| 2026-04-24 19:10 | 33.94915 | -118.40086 | 100 ft | 16 kts | 83° |
| 2026-04-24 19:11 | 33.94929 | -118.39974 | 97 ft | 9 kts | 77° |
| 2026-04-24 19:11 | 33.94939 | -118.39947 | 100 ft | 2 kts | 57° |
| 2026-04-24 19:11 | 33.94949 | -118.39936 | 100 ft | 2 kts | 38° |
| 2026-04-24 19:11 | 33.94974 | -118.39924 | 99 ft | 6 kts | 14° |
| 2026-04-24 19:12 | 33.95028 | -118.39927 | 99 ft | 7 kts | 327° |
| 2026-04-24 19:12 | 33.95040 | -118.39980 | 101 ft | 7 kts | 269° |
| 2026-04-24 19:12 | 33.95037 | -118.40009 | 99 ft | 3 kts | 262° |
| 2026-04-24 19:12 | 33.95033 | -118.40048 | 100 ft | 14 kts | 262° |
| 2026-04-24 19:13 | 33.95010 | -118.40267 | 103 ft | 66 kts | 263° |
| 2026-04-24 19:13 | 33.94875 | -118.41570 | 103 ft | 168 kts | 263° |
| 2026-04-24 19:13 | 33.94722 | -118.43204 | 369 ft | 209 kts | 263° |
| 2026-04-24 19:13 | 33.94639 | -118.44980 | 1297 ft | 217 kts | 266° |
| 2026-04-24 19:14 | 33.94572 | -118.46830 | 2164 ft | 226 kts | 261° |
| 2026-04-24 19:14 | 33.94411 | -118.48739 | 2830 ft | 231 kts | 264° |
| 2026-04-24 19:14 | 33.94297 | -118.50683 | 3279 ft | 234 kts | 263° |
| 2026-04-24 19:14 | 33.94130 | -118.52635 | 3727 ft | 235 kts | 263° |
| 2026-04-24 19:15 | 33.93957 | -118.54596 | 4186 ft | 238 kts | 263° |
| 2026-04-24 19:15 | 33.93788 | -118.56600 | 4629 ft | 242 kts | 263° |
| 2026-04-24 19:15 | 33.93622 | -118.58639 | 5025 ft | 250 kts | 264° |
| 2026-04-24 19:15 | 33.93457 | -118.60724 | 5029 ft | 248 kts | 264° |
| 2026-04-24 19:16 | 33.93116 | -118.65034 | 5610 ft | 267 kts | 264° |
| 2026-04-24 19:16 | 33.92914 | -118.67637 | 6177 ft | 277 kts | 265° |
| 2026-04-24 19:16 | 33.92731 | -118.70000 | 6692 ft | 282 kts | 265° |
| 2026-04-24 19:17 | 33.92552 | -118.72302 | 7348 ft | 281 kts | 264° |
| 2026-04-24 19:17 | 33.92369 | -118.74661 | 7917 ft | 283 kts | 264° |
| 2026-04-24 19:17 | 33.92184 | -118.77037 | 8508 ft | 285 kts | 264° |
| 2026-04-24 19:17 | 33.91997 | -118.79418 | 9113 ft | 287 kts | 264° |
| 2026-04-24 19:18 | 33.91809 | -118.81819 | 9711 ft | 289 kts | 264° |
| 2026-04-24 19:18 | 33.91653 | -118.84236 | 10250 ft | 292 kts | 268° |
| 2026-04-24 19:18 | 33.91697 | -118.86742 | 10439 ft | 309 kts | 272° |
| 2026-04-24 19:18 | 33.91821 | -118.89395 | 10590 ft | 327 kts | 272° |
| 2026-04-24 19:19 | 33.91944 | -118.92202 | 10750 ft | 345 kts | 271° |
| 2026-04-24 19:19 | 33.92047 | -118.95168 | 10939 ft | 361 kts | 271° |
| 2026-04-24 19:19 | 33.92140 | -118.98226 | 11430 ft | 369 kts | 271° |
| 2026-04-24 19:19 | 33.92377 | -119.01299 | 11896 ft | 373 kts | 282° |
| 2026-04-24 19:20 | 33.93427 | -119.04180 | 12440 ft | 379 kts | 300° |
| 2026-04-24 19:20 | 33.94888 | -119.06847 | 12968 ft | 384 kts | 300° |
| 2026-04-24 19:20 | 33.96323 | -119.09568 | 13632 ft | 386 kts | 298° |
| 2026-04-24 19:20 | 33.97742 | -119.12313 | 14282 ft | 387 kts | 298° |
| 2026-04-24 19:21 | 33.99168 | -119.15082 | 14917 ft | 389 kts | 298° |
| 2026-04-24 19:21 | 34.00600 | -119.17799 | 15458 ft | 391 kts | 302° |
| 2026-04-24 19:21 | 34.02515 | -119.20188 | 15872 ft | 405 kts | 320° |
| 2026-04-24 19:21 | 34.04875 | -119.22069 | 16238 ft | 410 kts | 321° |
| 2026-04-24 19:22 | 34.06481 | -119.23377 | 16561 ft | 413 kts | 320° |
| 2026-04-24 19:22 | 34.09605 | -119.26017 | 17409 ft | 413 kts | 319° |
| 2026-04-24 19:22 | 34.11952 | -119.28033 | 17976 ft | 416 kts | 319° |
| 2026-04-24 19:22 | 34.14312 | -119.30071 | 18495 ft | 419 kts | 319° |
| 2026-04-24 19:23 | 34.16685 | -119.32121 | 18992 ft | 420 kts | 318° |
| 2026-04-24 19:23 | 34.19064 | -119.34174 | 19554 ft | 420 kts | 318° |
| 2026-04-24 19:23 | 34.21445 | -119.36229 | 20098 ft | 421 kts | 318° |
| 2026-04-24 19:23 | 34.23827 | -119.38285 | 20639 ft | 422 kts | 317° |
| 2026-04-24 19:24 | 34.25410 | -119.39653 | 20969 ft | 423 kts | 317° |
| 2026-04-24 19:24 | 34.27813 | -119.41730 | 21416 ft | 425 kts | 317° |
| 2026-04-24 19:24 | 34.30228 | -119.43820 | 21874 ft | 427 kts | 317° |
| 2026-04-24 19:24 | 34.32646 | -119.45913 | 22313 ft | 429 kts | 317° |
| 2026-04-24 19:25 | 34.35866 | -119.48703 | 22909 ft | 429 kts | 316° |
| 2026-04-24 19:25 | 34.37407 | -119.50243 | 23077 ft | 422 kts | 307° |
| 2026-04-24 19:25 | 34.39080 | -119.53097 | 23341 ft | 413 kts | 291° |
| 2026-04-24 19:25 | 34.40071 | -119.56303 | 23737 ft | 409 kts | 282° |
| 2026-04-24 19:26 | 34.40640 | -119.59668 | 24078 ft | 408 kts | 274° |
| 2026-04-24 19:26 | 34.40592 | -119.63095 | 24345 ft | 408 kts | 265° |
| 2026-04-24 19:26 | 34.40315 | -119.66531 | 24621 ft | 411 kts | 264° |
| 2026-04-24 19:26 | 34.40028 | -119.69988 | 24923 ft | 413 kts | 264° |
| 2026-04-24 19:27 | 34.39748 | -119.73456 | 25242 ft | 415 kts | 264° |
| 2026-04-24 19:27 | 34.39477 | -119.76940 | 25554 ft | 416 kts | 265° |
| 2026-04-24 19:27 | 34.39214 | -119.80451 | 25812 ft | 419 kts | 265° |
| 2026-04-24 19:27 | 34.38958 | -119.83974 | 26058 ft | 421 kts | 265° |
| 2026-04-24 19:28 | 34.38703 | -119.87514 | 26322 ft | 422 kts | 265° |
| 2026-04-24 19:28 | 34.38449 | -119.91061 | 26573 ft | 424 kts | 265° |
| 2026-04-24 19:28 | 34.38193 | -119.94623 | 26790 ft | 426 kts | 265° |
| 2026-04-24 19:28 | 34.37936 | -119.98202 | 27010 ft | 427 kts | 265° |
| 2026-04-24 19:29 | 34.37415 | -120.05385 | 27491 ft | 429 kts | 264° |
| 2026-04-24 19:29 | 34.37153 | -120.08971 | 27835 ft | 427 kts | 264° |
| 2026-04-24 19:29 | 34.36895 | -120.12498 | 28177 ft | 426 kts | 264° |
| 2026-04-24 19:30 | 34.36629 | -120.16116 | 28456 ft | 426 kts | 264° |
| 2026-04-24 19:30 | 34.36369 | -120.19630 | 28760 ft | 425 kts | 264° |
| 2026-04-24 19:30 | 34.36105 | -120.23189 | 29092 ft | 423 kts | 264° |
| 2026-04-24 19:30 | 34.35841 | -120.26731 | 29430 ft | 422 kts | 264° |
| 2026-04-24 19:31 | 34.35576 | -120.30272 | 29743 ft | 421 kts | 264° |
| 2026-04-24 19:31 | 34.35312 | -120.33801 | 29948 ft | 421 kts | 264° |
| 2026-04-24 19:31 | 34.35045 | -120.37341 | 29993 ft | 422 kts | 264° |
| 2026-04-24 19:32 | 34.34502 | -120.44427 | 30030 ft | 423 kts | 263° |
| 2026-04-24 19:32 | 34.33897 | -120.47910 | 30024 ft | 423 kts | 252° |
| 2026-04-24 19:32 | 34.32649 | -120.51130 | 30046 ft | 422 kts | 245° |
| 2026-04-24 19:33 | 34.30034 | -120.57448 | 30042 ft | 424 kts | 247° |
| 2026-04-24 19:33 | 34.27489 | -120.63900 | 30040 ft | 426 kts | 247° |
| 2026-04-24 19:34 | 34.24941 | -120.70371 | 30037 ft | 427 kts | 247° |
| 2026-04-24 19:34 | 34.22373 | -120.76861 | 30035 ft | 428 kts | 247° |
| 2026-04-24 19:35 | 34.19798 | -120.83338 | 30032 ft | 427 kts | 247° |
| 2026-04-24 19:35 | 34.17223 | -120.89800 | 30027 ft | 426 kts | 246° |
| 2026-04-24 19:36 | 34.14653 | -120.96239 | 30022 ft | 425 kts | 246° |
| 2026-04-24 19:36 | 34.12078 | -121.02679 | 30027 ft | 425 kts | 246° |
| 2026-04-24 19:37 | 34.09516 | -121.09072 | 30046 ft | 426 kts | 246° |
| 2026-04-24 19:37 | 34.06927 | -121.15522 | 30044 ft | 427 kts | 246° |
| 2026-04-24 19:38 | 34.04333 | -121.21972 | 30045 ft | 428 kts | 246° |
| 2026-04-24 19:38 | 34.01731 | -121.28430 | 30033 ft | 428 kts | 246° |
| 2026-04-24 19:39 | 33.99124 | -121.34886 | 30051 ft | 429 kts | 246° |
| 2026-04-24 19:39 | 33.96508 | -121.41352 | 30048 ft | 430 kts | 246° |
| 2026-04-24 19:40 | 33.93901 | -121.47784 | 30054 ft | 430 kts | 246° |
| 2026-04-24 19:40 | 33.91275 | -121.54252 | 30047 ft | 430 kts | 246° |
| 2026-04-24 19:41 | 33.88641 | -121.60727 | 30052 ft | 430 kts | 246° |
| 2026-04-24 19:41 | 33.86006 | -121.67191 | 30062 ft | 431 kts | 246° |
| 2026-04-24 19:42 | 33.83363 | -121.73663 | 30060 ft | 431 kts | 246° |
| 2026-04-24 19:42 | 33.80720 | -121.80123 | 30052 ft | 431 kts | 246° |
| 2026-04-24 19:43 | 33.78072 | -121.86582 | 30062 ft | 430 kts | 246° |
| 2026-04-24 19:43 | 33.75420 | -121.93042 | 30065 ft | 431 kts | 245° |
| 2026-04-24 19:44 | 33.72762 | -121.99500 | 30071 ft | 431 kts | 245° |
| 2026-04-24 19:44 | 33.70104 | -122.05949 | 30071 ft | 431 kts | 245° |
| 2026-04-24 19:45 | 33.67456 | -122.12361 | 30064 ft | 431 kts | 245° |
| 2026-04-24 19:45 | 33.64792 | -122.18801 | 30074 ft | 430 kts | 245° |